sensor_id;sensor_type;location;lat;lon;timestamp;P1;durP1;ratioP1;P2;durP2;ratioP2
32327;SDS011;18806;51.558;5.100;2022-07-04T13:12:55;5.93;;;2.28;;
32327;SDS011;18806;51.558;5.100;2022-07-04T13:15:23;5.10;;;1.90;;
32327;SDS011;18806;51.558;5.100;2022-07-04T13:17:51;6.40;;;2.10;;
32327;SDS011;18806;51.558;5.100;2022-07-04T13:20:19;3.80;;;1.50;;
32327;SDS011;18806;51.558;5.100;2022-07-04T13:22:46;4.50;;;2.00;;
32327;SDS011;18806;51.558;5.100;2022-07-04T13:25:13;4.32;;;1.90;;
32327;SDS011;18806;51.558;5.100;2022-07-04T13:27:40;3.60;;;1.67;;
32327;SDS011;18806;51.558;5.100;2022-07-04T13:30:08;5.33;;;2.30;;
32327;SDS011;18806;51.558;5.100;2022-07-04T13:32:35;4.97;;;2.42;;
32327;SDS011;18806;51.558;5.100;2022-07-04T13:35:06;5.43;;;1.90;;
32327;SDS011;18806;51.558;5.100;2022-07-04T13:37:36;5.38;;;2.28;;
32327;SDS011;18806;51.558;5.100;2022-07-04T13:40:10;4.10;;;1.90;;
32327;SDS011;18806;51.558;5.100;2022-07-04T13:42:41;4.75;;;1.90;;
32327;SDS011;18806;51.558;5.100;2022-07-04T13:45:24;4.40;;;2.05;;
32327;SDS011;18806;51.558;5.100;2022-07-04T13:47:52;5.13;;;2.10;;
32327;SDS011;18806;51.558;5.100;2022-07-04T13:50:21;4.18;;;2.22;;
32327;SDS011;18806;51.558;5.100;2022-07-04T13:52:49;4.72;;;2.25;;
32327;SDS011;18806;51.558;5.100;2022-07-04T13:55:17;3.80;;;2.00;;
32327;SDS011;18806;51.558;5.100;2022-07-04T13:57:47;4.07;;;1.90;;
32327;SDS011;18806;51.558;5.100;2022-07-04T14:00:14;4.82;;;2.10;;
32327;SDS011;18806;51.558;5.100;2022-07-04T14:02:44;6.55;;;2.28;;
32327;SDS011;18806;51.558;5.100;2022-07-04T14:05:11;5.10;;;2.08;;
32327;SDS011;18806;51.558;5.100;2022-07-04T14:07:39;4.13;;;1.80;;
32327;SDS011;18806;51.558;5.100;2022-07-04T14:10:12;5.07;;;2.10;;
32327;SDS011;18806;51.558;5.100;2022-07-04T14:12:42;4.50;;;2.30;;
32327;SDS011;18806;51.558;5.100;2022-07-04T14:15:12;5.18;;;2.28;;
32327;SDS011;18806;51.558;5.100;2022-07-04T14:17:42;6.72;;;2.30;;
32327;SDS011;18806;51.558;5.100;2022-07-04T14:20:10;5.05;;;2.20;;
32327;SDS011;18806;51.558;5.100;2022-07-04T14:22:38;5.68;;;2.28;;
32327;SDS011;18806;51.558;5.100;2022-07-04T14:25:05;4.70;;;1.92;;
32327;SDS011;18806;51.558;5.100;2022-07-04T14:27:34;3.90;;;1.85;;
32327;SDS011;18806;51.558;5.100;2022-07-04T14:30:02;4.35;;;1.90;;
32327;SDS011;18806;51.558;5.100;2022-07-04T14:32:32;4.30;;;2.00;;
32327;SDS011;18806;51.558;5.100;2022-07-04T14:35:00;4.88;;;2.10;;
32327;SDS011;18806;51.558;5.100;2022-07-04T14:37:27;6.72;;;2.08;;
32327;SDS011;18806;51.558;5.100;2022-07-04T14:39:55;4.22;;;2.00;;
32327;SDS011;18806;51.558;5.100;2022-07-04T14:42:26;5.53;;;2.20;;
32327;SDS011;18806;51.558;5.100;2022-07-04T14:44:57;5.70;;;2.20;;
32327;SDS011;18806;51.558;5.100;2022-07-04T14:47:26;4.35;;;1.85;;
32327;SDS011;18806;51.558;5.100;2022-07-04T14:49:58;4.78;;;2.05;;
32327;SDS011;18806;51.558;5.100;2022-07-04T14:52:26;5.25;;;2.00;;
32327;SDS011;18806;51.558;5.100;2022-07-04T14:54:54;4.43;;;1.90;;
32327;SDS011;18806;51.558;5.100;2022-07-04T14:57:21;4.93;;;2.05;;
32327;SDS011;18806;51.558;5.100;2022-07-04T14:59:48;3.60;;;1.80;;
32327;SDS011;18806;51.558;5.100;2022-07-04T15:02:15;4.75;;;2.30;;
32327;SDS011;18806;51.558;5.100;2022-07-04T15:04:42;6.00;;;2.13;;
32327;SDS011;18806;51.558;5.100;2022-07-04T15:07:10;5.18;;;2.00;;
32327;SDS011;18806;51.558;5.100;2022-07-04T15:09:37;4.50;;;1.98;;
32327;SDS011;18806;51.558;5.100;2022-07-04T15:12:06;4.53;;;2.15;;
32327;SDS011;18806;51.558;5.100;2022-07-04T15:14:33;5.03;;;2.20;;
32327;SDS011;18806;51.558;5.100;2022-07-04T15:17:01;4.60;;;2.15;;
32327;SDS011;18806;51.558;5.100;2022-07-04T15:19:28;6.43;;;2.20;;
32327;SDS011;18806;51.558;5.100;2022-07-04T15:22:01;4.25;;;1.90;;
32327;SDS011;18806;51.558;5.100;2022-07-04T15:24:55;4.25;;;1.80;;
32327;SDS011;18806;51.558;5.100;2022-07-04T15:27:27;3.85;;;1.70;;
32327;SDS011;18806;51.558;5.100;2022-07-04T15:29:54;4.05;;;1.80;;
32327;SDS011;18806;51.558;5.100;2022-07-04T15:32:21;4.35;;;2.60;;
32327;SDS011;18806;51.558;5.100;2022-07-04T15:34:49;4.77;;;2.30;;
32327;SDS011;18806;51.558;5.100;2022-07-04T15:37:38;4.75;;;2.00;;
32327;SDS011;18806;51.558;5.100;2022-07-04T15:40:06;4.53;;;2.00;;
32327;SDS011;18806;51.558;5.100;2022-07-04T15:42:36;5.25;;;1.70;;
32327;SDS011;18806;51.558;5.100;2022-07-04T15:45:03;3.15;;;2.03;;
32327;SDS011;18806;51.558;5.100;2022-07-04T15:47:31;5.03;;;2.30;;
32327;SDS011;18806;51.558;5.100;2022-07-04T15:50:03;5.38;;;2.42;;
32327;SDS011;18806;51.558;5.100;2022-07-04T15:52:32;4.38;;;2.00;;
32327;SDS011;18806;51.558;5.100;2022-07-04T15:55:04;3.47;;;1.95;;
32327;SDS011;18806;51.558;5.100;2022-07-04T15:57:45;3.53;;;2.05;;
32327;SDS011;18806;51.558;5.100;2022-07-04T16:00:13;4.47;;;2.10;;
32327;SDS011;18806;51.558;5.100;2022-07-04T16:02:40;4.80;;;2.22;;
32327;SDS011;18806;51.558;5.100;2022-07-04T16:05:12;6.10;;;2.40;;
32327;SDS011;18806;51.558;5.100;2022-07-04T16:07:40;4.97;;;2.15;;
32327;SDS011;18806;51.558;5.100;2022-07-04T16:10:07;3.95;;;1.70;;
32327;SDS011;18806;51.558;5.100;2022-07-04T16:12:35;4.03;;;2.00;;
32327;SDS011;18806;51.558;5.100;2022-07-04T16:15:02;5.40;;;2.10;;
32327;SDS011;18806;51.558;5.100;2022-07-04T16:17:30;4.88;;;2.03;;
32327;SDS011;18806;51.558;5.100;2022-07-04T16:19:57;4.35;;;2.30;;
32327;SDS011;18806;51.558;5.100;2022-07-04T16:22:24;5.07;;;2.30;;
32327;SDS011;18806;51.558;5.100;2022-07-04T16:24:51;5.00;;;2.30;;
32327;SDS011;18806;51.558;5.100;2022-07-04T16:27:19;4.05;;;2.13;;
32327;SDS011;18806;51.558;5.100;2022-07-04T16:29:46;4.93;;;2.25;;
32327;SDS011;18806;51.558;5.100;2022-07-04T16:32:16;3.88;;;1.80;;
32327;SDS011;18806;51.558;5.100;2022-07-04T16:34:46;5.70;;;2.00;;
32327;SDS011;18806;51.558;5.100;2022-07-04T16:37:14;4.80;;;2.17;;
32327;SDS011;18806;51.558;5.100;2022-07-04T16:39:42;3.60;;;1.80;;
32327;SDS011;18806;51.558;5.100;2022-07-04T16:42:09;6.20;;;1.92;;
32327;SDS011;18806;51.558;5.100;2022-07-04T16:44:36;4.30;;;2.00;;
32327;SDS011;18806;51.558;5.100;2022-07-04T16:47:04;3.35;;;1.60;;
32327;SDS011;18806;51.558;5.100;2022-07-04T16:49:31;4.53;;;1.98;;
32327;SDS011;18806;51.558;5.100;2022-07-04T16:52:08;5.80;;;1.90;;
32327;SDS011;18806;51.558;5.100;2022-07-04T16:54:35;5.03;;;2.10;;
32327;SDS011;18806;51.558;5.100;2022-07-04T16:57:02;5.43;;;2.30;;
32327;SDS011;18806;51.558;5.100;2022-07-04T16:59:30;6.00;;;2.00;;
32327;SDS011;18806;51.558;5.100;2022-07-04T17:01:58;4.88;;;2.05;;
32327;SDS011;18806;51.558;5.100;2022-07-04T17:04:25;4.68;;;1.80;;
32327;SDS011;18806;51.558;5.100;2022-07-04T17:06:54;3.70;;;1.60;;
32327;SDS011;18806;51.558;5.100;2022-07-04T17:09:21;4.82;;;1.92;;
32327;SDS011;18806;51.558;5.100;2022-07-04T17:11:48;3.35;;;1.70;;
32327;SDS011;18806;51.558;5.100;2022-07-04T17:14:16;4.00;;;1.70;;
32327;SDS011;18806;51.558;5.100;2022-07-04T17:16:44;3.03;;;1.40;;
32327;SDS011;18806;51.558;5.100;2022-07-04T17:19:12;3.40;;;1.80;;
32327;SDS011;18806;51.558;5.100;2022-07-04T17:21:42;2.83;;;1.50;;
32327;SDS011;18806;51.558;5.100;2022-07-04T17:24:14;4.28;;;1.80;;
32327;SDS011;18806;51.558;5.100;2022-07-04T17:26:46;4.07;;;1.70;;
32327;SDS011;18806;51.558;5.100;2022-07-04T17:29:33;3.00;;;1.48;;
32327;SDS011;18806;51.558;5.100;2022-07-04T17:32:03;3.10;;;1.50;;
32327;SDS011;18806;51.558;5.100;2022-07-04T17:34:31;3.53;;;1.60;;
32327;SDS011;18806;51.558;5.100;2022-07-04T17:36:58;4.55;;;1.58;;
32327;SDS011;18806;51.558;5.100;2022-07-04T17:39:26;3.22;;;1.38;;
32327;SDS011;18806;51.558;5.100;2022-07-04T17:41:53;4.00;;;1.48;;
32327;SDS011;18806;51.558;5.100;2022-07-04T17:44:20;3.53;;;1.40;;
32327;SDS011;18806;51.558;5.100;2022-07-04T17:46:52;3.67;;;1.50;;
32327;SDS011;18806;51.558;5.100;2022-07-04T17:49:22;3.05;;;1.40;;
32327;SDS011;18806;51.558;5.100;2022-07-04T17:51:49;3.78;;;1.40;;
32327;SDS011;18806;51.558;5.100;2022-07-04T17:54:18;5.47;;;1.40;;
32327;SDS011;18806;51.558;5.100;2022-07-04T17:57:05;3.20;;;1.30;;
32327;SDS011;18806;51.558;5.100;2022-07-04T17:59:32;4.43;;;1.60;;
32327;SDS011;18806;51.558;5.100;2022-07-04T18:02:00;3.55;;;1.50;;
32327;SDS011;18806;51.558;5.100;2022-07-04T18:04:27;3.70;;;1.33;;
32327;SDS011;18806;51.558;5.100;2022-07-04T18:06:54;3.95;;;1.60;;
32327;SDS011;18806;51.558;5.100;2022-07-04T18:09:21;5.18;;;1.50;;
32327;SDS011;18806;51.558;5.100;2022-07-04T18:11:51;4.40;;;1.50;;
32327;SDS011;18806;51.558;5.100;2022-07-04T18:14:18;4.10;;;1.60;;
32327;SDS011;18806;51.558;5.100;2022-07-04T18:16:45;5.03;;;1.75;;
32327;SDS011;18806;51.558;5.100;2022-07-04T18:19:14;3.85;;;1.65;;
32327;SDS011;18806;51.558;5.100;2022-07-04T18:21:42;4.05;;;1.70;;
32327;SDS011;18806;51.558;5.100;2022-07-04T18:24:10;4.13;;;1.85;;
32327;SDS011;18806;51.558;5.100;2022-07-04T18:26:41;4.00;;;1.70;;
32327;SDS011;18806;51.558;5.100;2022-07-04T18:29:09;4.50;;;1.80;;
32327;SDS011;18806;51.558;5.100;2022-07-04T18:31:36;2.58;;;1.48;;
32327;SDS011;18806;51.558;5.100;2022-07-04T18:34:20;3.80;;;1.80;;
32327;SDS011;18806;51.558;5.100;2022-07-04T18:36:51;4.10;;;1.80;;
32327;SDS011;18806;51.558;5.100;2022-07-04T18:39:19;5.72;;;1.88;;
32327;SDS011;18806;51.558;5.100;2022-07-04T18:41:53;5.93;;;1.77;;
32327;SDS011;18806;51.558;5.100;2022-07-04T18:44:40;4.32;;;1.70;;
32327;SDS011;18806;51.558;5.100;2022-07-04T18:47:08;3.87;;;1.70;;
32327;SDS011;18806;51.558;5.100;2022-07-04T18:49:39;5.10;;;1.80;;
32327;SDS011;18806;51.558;5.100;2022-07-04T18:52:09;4.32;;;1.70;;
32327;SDS011;18806;51.558;5.100;2022-07-04T18:54:37;4.00;;;1.80;;
32327;SDS011;18806;51.558;5.100;2022-07-04T18:57:05;4.10;;;1.70;;
32327;SDS011;18806;51.558;5.100;2022-07-04T18:59:34;3.63;;;1.60;;
32327;SDS011;18806;51.558;5.100;2022-07-04T19:02:01;3.88;;;1.65;;
32327;SDS011;18806;51.558;5.100;2022-07-04T19:04:29;5.22;;;1.60;;
32327;SDS011;18806;51.558;5.100;2022-07-04T19:06:56;4.65;;;1.60;;
32327;SDS011;18806;51.558;5.100;2022-07-04T19:09:26;3.45;;;1.50;;
32327;SDS011;18806;51.558;5.100;2022-07-04T19:11:53;4.15;;;1.58;;
32327;SDS011;18806;51.558;5.100;2022-07-04T19:14:21;3.60;;;1.47;;
32327;SDS011;18806;51.558;5.100;2022-07-04T19:16:48;5.35;;;1.50;;
32327;SDS011;18806;51.558;5.100;2022-07-04T19:19:15;4.23;;;1.47;;
32327;SDS011;18806;51.558;5.100;2022-07-04T19:21:44;3.07;;;1.37;;
32327;SDS011;18806;51.558;5.100;2022-07-04T19:24:16;2.85;;;1.30;;
32327;SDS011;18806;51.558;5.100;2022-07-04T19:26:46;2.95;;;1.38;;
32327;SDS011;18806;51.558;5.100;2022-07-04T19:29:13;3.80;;;1.52;;
32327;SDS011;18806;51.558;5.100;2022-07-04T19:31:41;2.92;;;1.40;;
32327;SDS011;18806;51.558;5.100;2022-07-04T19:34:11;4.35;;;1.30;;
32327;SDS011;18806;51.558;5.100;2022-07-04T19:36:47;4.05;;;1.40;;
32327;SDS011;18806;51.558;5.100;2022-07-04T19:39:14;3.90;;;1.33;;
32327;SDS011;18806;51.558;5.100;2022-07-04T19:41:42;3.13;;;1.20;;
32327;SDS011;18806;51.558;5.100;2022-07-04T19:44:16;3.10;;;1.27;;
32327;SDS011;18806;51.558;5.100;2022-07-04T19:46:45;2.50;;;1.20;;
32327;SDS011;18806;51.558;5.100;2022-07-04T19:49:15;3.90;;;1.37;;
32327;SDS011;18806;51.558;5.100;2022-07-04T19:51:53;3.15;;;1.20;;
32327;SDS011;18806;51.558;5.100;2022-07-04T19:54:40;4.32;;;1.45;;
32327;SDS011;18806;51.558;5.100;2022-07-04T19:57:07;3.58;;;1.35;;
32327;SDS011;18806;51.558;5.100;2022-07-04T19:59:34;4.10;;;1.67;;
32327;SDS011;18806;51.558;5.100;2022-07-04T20:02:02;4.23;;;1.70;;
32327;SDS011;18806;51.558;5.100;2022-07-04T20:04:29;6.18;;;1.60;;
32327;SDS011;18806;51.558;5.100;2022-07-04T20:06:56;5.28;;;1.50;;
32327;SDS011;18806;51.558;5.100;2022-07-04T20:09:23;6.17;;;1.67;;
32327;SDS011;18806;51.558;5.100;2022-07-04T20:11:50;4.00;;;1.48;;
32327;SDS011;18806;51.558;5.100;2022-07-04T20:14:17;4.70;;;1.40;;
32327;SDS011;18806;51.558;5.100;2022-07-04T20:16:48;2.72;;;1.30;;
32327;SDS011;18806;51.558;5.100;2022-07-04T20:19:15;3.22;;;1.45;;
32327;SDS011;18806;51.558;5.100;2022-07-04T20:21:42;3.80;;;1.50;;
32327;SDS011;18806;51.558;5.100;2022-07-04T20:24:12;3.03;;;1.70;;
32327;SDS011;18806;51.558;5.100;2022-07-04T20:26:39;4.80;;;1.70;;
32327;SDS011;18806;51.558;5.100;2022-07-04T20:29:26;4.45;;;1.70;;
32327;SDS011;18806;51.558;5.100;2022-07-04T20:31:54;3.67;;;1.70;;
32327;SDS011;18806;51.558;5.100;2022-07-04T20:34:23;3.92;;;1.60;;
32327;SDS011;18806;51.558;5.100;2022-07-04T20:36:53;6.22;;;2.10;;
32327;SDS011;18806;51.558;5.100;2022-07-04T20:39:20;4.43;;;1.70;;
32327;SDS011;18806;51.558;5.100;2022-07-04T20:41:47;5.40;;;1.75;;
32327;SDS011;18806;51.558;5.100;2022-07-04T20:44:14;6.32;;;2.10;;
32327;SDS011;18806;51.558;5.100;2022-07-04T20:46:43;6.63;;;2.50;;
32327;SDS011;18806;51.558;5.100;2022-07-04T20:49:10;4.32;;;1.90;;
32327;SDS011;18806;51.558;5.100;2022-07-04T20:51:38;6.13;;;2.20;;
32327;SDS011;18806;51.558;5.100;2022-07-04T20:54:12;5.70;;;2.30;;
32327;SDS011;18806;51.558;5.100;2022-07-04T20:56:43;4.68;;;2.30;;
32327;SDS011;18806;51.558;5.100;2022-07-04T20:59:11;7.03;;;2.20;;
32327;SDS011;18806;51.558;5.100;2022-07-04T21:01:39;3.65;;;2.08;;
32327;SDS011;18806;51.558;5.100;2022-07-04T21:04:08;4.17;;;2.20;;
32327;SDS011;18806;51.558;5.100;2022-07-04T21:06:35;5.15;;;2.15;;
32327;SDS011;18806;51.558;5.100;2022-07-04T21:09:03;5.25;;;2.38;;
32327;SDS011;18806;51.558;5.100;2022-07-04T21:11:31;3.72;;;2.00;;
32327;SDS011;18806;51.558;5.100;2022-07-04T21:13:58;3.85;;;2.00;;
32327;SDS011;18806;51.558;5.100;2022-07-04T21:16:25;7.15;;;1.90;;
32327;SDS011;18806;51.558;5.100;2022-07-04T21:18:52;4.40;;;2.00;;
32327;SDS011;18806;51.558;5.100;2022-07-04T21:21:19;3.60;;;1.75;;
32327;SDS011;18806;51.558;5.100;2022-07-04T21:23:46;4.03;;;2.10;;
32327;SDS011;18806;51.558;5.100;2022-07-04T21:26:14;4.23;;;1.90;;
32327;SDS011;18806;51.558;5.100;2022-07-04T21:28:41;3.90;;;2.05;;
32327;SDS011;18806;51.558;5.100;2022-07-04T21:31:12;4.15;;;2.20;;
32327;SDS011;18806;51.558;5.100;2022-07-04T21:33:42;4.57;;;2.10;;
32327;SDS011;18806;51.558;5.100;2022-07-04T21:36:11;3.72;;;2.00;;
32327;SDS011;18806;51.558;5.100;2022-07-04T21:38:40;5.88;;;2.08;;
32327;SDS011;18806;51.558;5.100;2022-07-04T21:41:08;3.97;;;1.90;;
32327;SDS011;18806;51.558;5.100;2022-07-04T21:43:36;3.78;;;2.25;;
32327;SDS011;18806;51.558;5.100;2022-07-04T21:46:03;4.07;;;2.20;;
32327;SDS011;18806;51.558;5.100;2022-07-04T21:48:31;5.47;;;2.30;;
32327;SDS011;18806;51.558;5.100;2022-07-04T21:50:59;5.15;;;2.50;;
32327;SDS011;18806;51.558;5.100;2022-07-04T21:53:29;3.63;;;2.20;;
32327;SDS011;18806;51.558;5.100;2022-07-04T21:55:57;4.75;;;2.30;;
32327;SDS011;18806;51.558;5.100;2022-07-04T21:58:25;4.43;;;2.50;;
32327;SDS011;18806;51.558;5.100;2022-07-04T22:00:52;6.22;;;2.38;;
32327;SDS011;18806;51.558;5.100;2022-07-04T22:03:19;4.88;;;2.67;;
32327;SDS011;18806;51.558;5.100;2022-07-04T22:05:52;5.57;;;2.40;;
32327;SDS011;18806;51.558;5.100;2022-07-04T22:08:19;5.43;;;2.50;;
32327;SDS011;18806;51.558;5.100;2022-07-04T22:10:47;4.72;;;2.70;;
32327;SDS011;18806;51.558;5.100;2022-07-04T22:13:15;5.43;;;2.60;;
32327;SDS011;18806;51.558;5.100;2022-07-04T22:15:42;6.80;;;2.70;;
32327;SDS011;18806;51.558;5.100;2022-07-04T22:18:11;5.38;;;2.83;;
32327;SDS011;18806;51.558;5.100;2022-07-04T22:20:40;5.22;;;2.92;;
32327;SDS011;18806;51.558;5.100;2022-07-04T22:23:14;5.35;;;2.90;;
32327;SDS011;18806;51.558;5.100;2022-07-04T22:25:42;5.80;;;3.10;;
32327;SDS011;18806;51.558;5.100;2022-07-04T22:28:12;6.32;;;3.10;;
32327;SDS011;18806;51.558;5.100;2022-07-04T22:30:42;5.18;;;3.20;;
32327;SDS011;18806;51.558;5.100;2022-07-04T22:33:11;7.23;;;3.57;;
32327;SDS011;18806;51.558;5.100;2022-07-04T22:35:38;6.72;;;3.45;;
32327;SDS011;18806;51.558;5.100;2022-07-04T22:38:05;5.73;;;3.10;;
32327;SDS011;18806;51.558;5.100;2022-07-04T22:40:33;6.20;;;3.30;;
32327;SDS011;18806;51.558;5.100;2022-07-04T22:43:01;5.90;;;3.38;;
32327;SDS011;18806;51.558;5.100;2022-07-04T22:45:28;7.03;;;3.45;;
32327;SDS011;18806;51.558;5.100;2022-07-04T22:47:55;6.55;;;3.40;;
32327;SDS011;18806;51.558;5.100;2022-07-04T22:50:22;5.60;;;3.17;;
32327;SDS011;18806;51.558;5.100;2022-07-04T22:52:49;6.22;;;3.47;;
32327;SDS011;18806;51.558;5.100;2022-07-04T22:55:17;6.27;;;3.33;;
32327;SDS011;18806;51.558;5.100;2022-07-04T22:57:46;4.75;;;3.00;;
32327;SDS011;18806;51.558;5.100;2022-07-04T23:00:14;7.40;;;3.30;;
32327;SDS011;18806;51.558;5.100;2022-07-04T23:02:42;5.78;;;2.95;;
32327;SDS011;18806;51.558;5.100;2022-07-04T23:05:10;5.38;;;3.10;;
32327;SDS011;18806;51.558;5.100;2022-07-04T23:07:37;7.28;;;3.25;;
32327;SDS011;18806;51.558;5.100;2022-07-04T23:10:05;6.15;;;3.17;;
32327;SDS011;18806;51.558;5.100;2022-07-04T23:12:34;5.53;;;3.38;;
32327;SDS011;18806;51.558;5.100;2022-07-04T23:15:03;4.90;;;3.03;;
32327;SDS011;18806;51.558;5.100;2022-07-04T23:17:31;5.05;;;3.20;;
32327;SDS011;18806;51.558;5.100;2022-07-04T23:19:58;5.82;;;3.00;;
32327;SDS011;18806;51.558;5.100;2022-07-04T23:22:26;6.35;;;3.00;;
32327;SDS011;18806;51.558;5.100;2022-07-04T23:24:53;5.13;;;3.10;;
32327;SDS011;18806;51.558;5.100;2022-07-04T23:27:20;6.05;;;3.30;;
32327;SDS011;18806;51.558;5.100;2022-07-04T23:29:47;6.63;;;3.63;;
32327;SDS011;18806;51.558;5.100;2022-07-04T23:32:16;6.00;;;3.10;;
32327;SDS011;18806;51.558;5.100;2022-07-04T23:34:46;5.35;;;3.20;;
32327;SDS011;18806;51.558;5.100;2022-07-04T23:37:23;6.18;;;3.00;;
32327;SDS011;18806;51.558;5.100;2022-07-04T23:39:50;6.30;;;3.42;;
32327;SDS011;18806;51.558;5.100;2022-07-04T23:42:17;5.30;;;3.17;;
32327;SDS011;18806;51.558;5.100;2022-07-04T23:44:44;7.15;;;3.78;;
32327;SDS011;18806;51.558;5.100;2022-07-04T23:47:12;7.30;;;3.83;;
32327;SDS011;18806;51.558;5.100;2022-07-04T23:49:39;6.68;;;3.65;;
32327;SDS011;18806;51.558;5.100;2022-07-04T23:52:07;5.82;;;3.60;;
32327;SDS011;18806;51.558;5.100;2022-07-04T23:54:34;5.50;;;3.28;;
32327;SDS011;18806;51.558;5.100;2022-07-04T23:57:02;6.25;;;3.40;;
32327;SDS011;18806;51.558;5.100;2022-07-04T23:59:32;5.68;;;3.20;;
